sensor_id;sensor_type;location;lat;lon;timestamp;temperature;humidity
64634;DHT22;51043;52.406;9.690;2024-02-21T00:00:57;8.20;99.90
64634;DHT22;51043;52.406;9.690;2024-02-21T00:03:25;8.20;99.90
64634;DHT22;51043;52.406;9.690;2024-02-21T00:05:53;8.20;99.90
64634;DHT22;51043;52.406;9.690;2024-02-21T00:08:23;8.30;99.90
64634;DHT22;51043;52.406;9.690;2024-02-21T00:10:51;8.30;99.90
64634;DHT22;51043;52.406;9.690;2024-02-21T00:13:20;8.30;99.90
64634;DHT22;51043;52.406;9.690;2024-02-21T00:15:48;8.30;99.90
64634;DHT22;51043;52.406;9.690;2024-02-21T00:18:16;8.30;99.90
64634;DHT22;51043;52.406;9.690;2024-02-21T00:20:45;8.30;99.90
64634;DHT22;51043;52.406;9.690;2024-02-21T00:23:13;8.30;99.90
64634;DHT22;51043;52.406;9.690;2024-02-21T00:25:43;8.30;99.90
64634;DHT22;51043;52.406;9.690;2024-02-21T00:28:11;8.30;99.90
64634;DHT22;51043;52.406;9.690;2024-02-21T00:30:39;8.30;99.90
64634;DHT22;51043;52.406;9.690;2024-02-21T00:33:07;8.30;99.90
64634;DHT22;51043;52.406;9.690;2024-02-21T00:35:35;8.30;99.90
64634;DHT22;51043;52.406;9.690;2024-02-21T00:38:03;8.30;99.90
64634;DHT22;51043;52.406;9.690;2024-02-21T00:40:34;8.30;99.90
64634;DHT22;51043;52.406;9.690;2024-02-21T00:43:04;8.30;99.90
64634;DHT22;51043;52.406;9.690;2024-02-21T00:45:33;8.30;99.90
64634;DHT22;51043;52.406;9.690;2024-02-21T00:48:01;8.30;99.90
64634;DHT22;51043;52.406;9.690;2024-02-21T00:50:30;8.30;99.90
64634;DHT22;51043;52.406;9.690;2024-02-21T00:52:58;8.30;99.90
64634;DHT22;51043;52.406;9.690;2024-02-21T00:55:26;8.30;99.90
64634;DHT22;51043;52.406;9.690;2024-02-21T00:57:54;8.30;99.90
64634;DHT22;51043;52.406;9.690;2024-02-21T01:00:27;8.30;99.90
64634;DHT22;51043;52.406;9.690;2024-02-21T01:02:55;8.30;99.90
64634;DHT22;51043;52.406;9.690;2024-02-21T01:05:25;8.30;99.90
64634;DHT22;51043;52.406;9.690;2024-02-21T01:07:55;8.20;99.90
64634;DHT22;51043;52.406;9.690;2024-02-21T01:10:23;8.30;99.90
64634;DHT22;51043;52.406;9.690;2024-02-21T01:12:51;8.30;99.90
64634;DHT22;51043;52.406;9.690;2024-02-21T01:15:19;8.40;99.90
64634;DHT22;51043;52.406;9.690;2024-02-21T01:17:50;8.30;99.90
64634;DHT22;51043;52.406;9.690;2024-02-21T01:20:21;8.40;99.90
64634;DHT22;51043;52.406;9.690;2024-02-21T01:22:49;8.40;99.90
64634;DHT22;51043;52.406;9.690;2024-02-21T01:25:17;8.40;99.90
64634;DHT22;51043;52.406;9.690;2024-02-21T01:27:46;8.40;99.90
64634;DHT22;51043;52.406;9.690;2024-02-21T01:30:14;8.40;99.90
64634;DHT22;51043;52.406;9.690;2024-02-21T01:32:42;8.40;99.90
64634;DHT22;51043;52.406;9.690;2024-02-21T01:35:12;8.40;99.90
64634;DHT22;51043;52.406;9.690;2024-02-21T01:37:40;8.40;99.90
64634;DHT22;51043;52.406;9.690;2024-02-21T01:40:09;8.40;99.90
64634;DHT22;51043;52.406;9.690;2024-02-21T01:42:38;8.50;99.90
64634;DHT22;51043;52.406;9.690;2024-02-21T01:45:07;8.40;99.90
64634;DHT22;51043;52.406;9.690;2024-02-21T01:47:36;8.50;99.90
64634;DHT22;51043;52.406;9.690;2024-02-21T01:50:05;8.50;99.90
64634;DHT22;51043;52.406;9.690;2024-02-21T01:52:35;8.40;99.90
64634;DHT22;51043;52.406;9.690;2024-02-21T01:55:05;8.40;99.90
64634;DHT22;51043;52.406;9.690;2024-02-21T01:57:34;8.40;99.90
64634;DHT22;51043;52.406;9.690;2024-02-21T02:00:04;8.40;99.90
64634;DHT22;51043;52.406;9.690;2024-02-21T02:02:38;8.40;99.90
64634;DHT22;51043;52.406;9.690;2024-02-21T02:05:07;8.50;99.90
64634;DHT22;51043;52.406;9.690;2024-02-21T02:07:37;8.50;99.90
64634;DHT22;51043;52.406;9.690;2024-02-21T02:10:06;8.50;99.90
64634;DHT22;51043;52.406;9.690;2024-02-21T02:12:34;8.50;99.90
64634;DHT22;51043;52.406;9.690;2024-02-21T02:15:05;8.50;99.90
64634;DHT22;51043;52.406;9.690;2024-02-21T02:17:33;8.50;99.90
64634;DHT22;51043;52.406;9.690;2024-02-21T02:20:01;8.50;99.90
64634;DHT22;51043;52.406;9.690;2024-02-21T02:22:33;8.50;99.90
64634;DHT22;51043;52.406;9.690;2024-02-21T02:25:06;8.50;99.90
64634;DHT22;51043;52.406;9.690;2024-02-21T02:27:41;8.50;99.90
64634;DHT22;51043;52.406;9.690;2024-02-21T02:30:12;8.50;99.90
64634;DHT22;51043;52.406;9.690;2024-02-21T02:32:44;8.50;99.90
64634;DHT22;51043;52.406;9.690;2024-02-21T02:35:12;8.60;99.90
64634;DHT22;51043;52.406;9.690;2024-02-21T02:37:40;8.60;99.90
64634;DHT22;51043;52.406;9.690;2024-02-21T02:40:16;8.60;99.90
64634;DHT22;51043;52.406;9.690;2024-02-21T02:42:45;8.60;99.90
64634;DHT22;51043;52.406;9.690;2024-02-21T02:45:13;8.60;99.90
64634;DHT22;51043;52.406;9.690;2024-02-21T02:47:42;8.60;99.90
64634;DHT22;51043;52.406;9.690;2024-02-21T02:50:11;8.60;99.90
64634;DHT22;51043;52.406;9.690;2024-02-21T02:52:40;8.60;99.90
64634;DHT22;51043;52.406;9.690;2024-02-21T02:55:08;8.60;99.90
64634;DHT22;51043;52.406;9.690;2024-02-21T02:57:40;8.60;99.90
64634;DHT22;51043;52.406;9.690;2024-02-21T03:00:10;8.60;99.90
64634;DHT22;51043;52.406;9.690;2024-02-21T03:02:41;8.60;99.90
64634;DHT22;51043;52.406;9.690;2024-02-21T03:05:13;8.60;99.90
64634;DHT22;51043;52.406;9.690;2024-02-21T03:07:43;8.60;99.90
64634;DHT22;51043;52.406;9.690;2024-02-21T03:10:13;8.60;99.90
64634;DHT22;51043;52.406;9.690;2024-02-21T03:12:46;8.60;99.90
64634;DHT22;51043;52.406;9.690;2024-02-21T03:15:15;8.60;99.90
64634;DHT22;51043;52.406;9.690;2024-02-21T03:17:43;8.60;99.90
64634;DHT22;51043;52.406;9.690;2024-02-21T03:20:12;8.70;99.90
64634;DHT22;51043;52.406;9.690;2024-02-21T03:22:40;8.70;99.90
64634;DHT22;51043;52.406;9.690;2024-02-21T03:25:09;8.70;99.90
64634;DHT22;51043;52.406;9.690;2024-02-21T03:27:37;8.70;99.90
64634;DHT22;51043;52.406;9.690;2024-02-21T03:30:07;8.60;99.90
64634;DHT22;51043;52.406;9.690;2024-02-21T03:32:36;8.60;99.90
64634;DHT22;51043;52.406;9.690;2024-02-21T03:35:05;8.60;99.90
64634;DHT22;51043;52.406;9.690;2024-02-21T03:37:34;8.60;99.90
64634;DHT22;51043;52.406;9.690;2024-02-21T03:40:02;8.60;99.90
64634;DHT22;51043;52.406;9.690;2024-02-21T03:42:30;8.70;99.90
64634;DHT22;51043;52.406;9.690;2024-02-21T03:44:58;8.60;99.90
64634;DHT22;51043;52.406;9.690;2024-02-21T03:47:28;8.60;99.90
64634;DHT22;51043;52.406;9.690;2024-02-21T03:49:56;8.60;99.90
64634;DHT22;51043;52.406;9.690;2024-02-21T03:52:26;8.60;99.90
64634;DHT22;51043;52.406;9.690;2024-02-21T03:54:54;8.70;99.90
64634;DHT22;51043;52.406;9.690;2024-02-21T03:57:23;8.60;99.90
64634;DHT22;51043;52.406;9.690;2024-02-21T03:59:51;8.70;99.90
64634;DHT22;51043;52.406;9.690;2024-02-21T04:02:19;8.70;99.90
64634;DHT22;51043;52.406;9.690;2024-02-21T04:04:49;8.70;99.90
64634;DHT22;51043;52.406;9.690;2024-02-21T04:07:17;8.70;99.90
64634;DHT22;51043;52.406;9.690;2024-02-21T04:09:46;8.70;99.90
64634;DHT22;51043;52.406;9.690;2024-02-21T04:12:14;8.70;99.90
64634;DHT22;51043;52.406;9.690;2024-02-21T04:14:42;8.70;99.90
64634;DHT22;51043;52.406;9.690;2024-02-21T04:17:12;8.70;99.90
64634;DHT22;51043;52.406;9.690;2024-02-21T04:19:39;8.70;99.90
64634;DHT22;51043;52.406;9.690;2024-02-21T04:22:09;8.70;99.90
64634;DHT22;51043;52.406;9.690;2024-02-21T04:24:38;8.70;99.90
64634;DHT22;51043;52.406;9.690;2024-02-21T04:27:06;8.70;99.90
64634;DHT22;51043;52.406;9.690;2024-02-21T04:29:35;8.60;99.90
64634;DHT22;51043;52.406;9.690;2024-02-21T04:32:03;8.70;99.90
64634;DHT22;51043;52.406;9.690;2024-02-21T04:34:32;8.60;99.90
64634;DHT22;51043;52.406;9.690;2024-02-21T04:37:00;8.60;99.90
64634;DHT22;51043;52.406;9.690;2024-02-21T04:39:29;8.60;99.90
64634;DHT22;51043;52.406;9.690;2024-02-21T04:41:57;8.60;99.90
64634;DHT22;51043;52.406;9.690;2024-02-21T04:44:25;8.60;99.90
64634;DHT22;51043;52.406;9.690;2024-02-21T04:46:53;8.60;99.90
64634;DHT22;51043;52.406;9.690;2024-02-21T04:49:23;8.60;99.90
64634;DHT22;51043;52.406;9.690;2024-02-21T04:51:51;8.60;99.90
64634;DHT22;51043;52.406;9.690;2024-02-21T04:54:20;8.60;99.90
64634;DHT22;51043;52.406;9.690;2024-02-21T04:56:51;8.60;99.90
64634;DHT22;51043;52.406;9.690;2024-02-21T04:59:19;8.60;99.90
64634;DHT22;51043;52.406;9.690;2024-02-21T05:01:50;8.60;99.90
64634;DHT22;51043;52.406;9.690;2024-02-21T05:04:18;8.60;99.90
64634;DHT22;51043;52.406;9.690;2024-02-21T05:06:46;8.60;99.90
64634;DHT22;51043;52.406;9.690;2024-02-21T05:09:15;8.70;99.90
64634;DHT22;51043;52.406;9.690;2024-02-21T05:11:43;8.60;99.90
64634;DHT22;51043;52.406;9.690;2024-02-21T05:14:14;8.60;99.90
64634;DHT22;51043;52.406;9.690;2024-02-21T05:16:42;8.70;99.90
64634;DHT22;51043;52.406;9.690;2024-02-21T05:19:10;8.60;99.90
64634;DHT22;51043;52.406;9.690;2024-02-21T05:21:38;8.60;99.90
64634;DHT22;51043;52.406;9.690;2024-02-21T05:24:06;8.70;99.90
64634;DHT22;51043;52.406;9.690;2024-02-21T05:26:35;8.70;99.90
64634;DHT22;51043;52.406;9.690;2024-02-21T05:29:03;8.70;99.90
64634;DHT22;51043;52.406;9.690;2024-02-21T05:31:55;8.60;99.90
64634;DHT22;51043;52.406;9.690;2024-02-21T05:34:24;8.70;99.90
64634;DHT22;51043;52.406;9.690;2024-02-21T05:36:53;8.70;99.90
64634;DHT22;51043;52.406;9.690;2024-02-21T05:39:21;8.70;99.90
64634;DHT22;51043;52.406;9.690;2024-02-21T05:41:50;8.70;99.90
64634;DHT22;51043;52.406;9.690;2024-02-21T05:44:19;8.70;99.90
64634;DHT22;51043;52.406;9.690;2024-02-21T05:46:50;8.60;99.90
64634;DHT22;51043;52.406;9.690;2024-02-21T05:49:18;8.70;99.90
64634;DHT22;51043;52.406;9.690;2024-02-21T05:51:46;8.70;99.90
64634;DHT22;51043;52.406;9.690;2024-02-21T05:54:15;8.70;99.90
64634;DHT22;51043;52.406;9.690;2024-02-21T05:56:44;8.60;99.90
64634;DHT22;51043;52.406;9.690;2024-02-21T05:59:14;8.50;99.90
64634;DHT22;51043;52.406;9.690;2024-02-21T06:01:42;8.40;99.90
64634;DHT22;51043;52.406;9.690;2024-02-21T06:04:11;8.30;99.90
64634;DHT22;51043;52.406;9.690;2024-02-21T06:06:40;8.20;99.90
64634;DHT22;51043;52.406;9.690;2024-02-21T06:09:11;8.20;99.90
64634;DHT22;51043;52.406;9.690;2024-02-21T06:11:40;8.20;99.90
64634;DHT22;51043;52.406;9.690;2024-02-21T06:14:11;8.20;99.90
64634;DHT22;51043;52.406;9.690;2024-02-21T06:16:39;8.30;99.90
64634;DHT22;51043;52.406;9.690;2024-02-21T06:19:08;8.30;99.90
64634;DHT22;51043;52.406;9.690;2024-02-21T06:21:38;8.40;99.90
64634;DHT22;51043;52.406;9.690;2024-02-21T06:24:07;8.50;99.90
64634;DHT22;51043;52.406;9.690;2024-02-21T06:26:37;8.50;99.90
64634;DHT22;51043;52.406;9.690;2024-02-21T06:29:05;8.50;99.90
64634;DHT22;51043;52.406;9.690;2024-02-21T06:31:34;8.50;99.90
64634;DHT22;51043;52.406;9.690;2024-02-21T06:34:02;8.50;99.90
64634;DHT22;51043;52.406;9.690;2024-02-21T06:36:31;8.50;99.90
64634;DHT22;51043;52.406;9.690;2024-02-21T06:39:00;8.50;99.90
64634;DHT22;51043;52.406;9.690;2024-02-21T06:41:31;8.50;99.90
64634;DHT22;51043;52.406;9.690;2024-02-21T06:44:02;8.60;99.90
64634;DHT22;51043;52.406;9.690;2024-02-21T06:46:30;8.60;99.90
64634;DHT22;51043;52.406;9.690;2024-02-21T06:49:00;8.50;99.90
64634;DHT22;51043;52.406;9.690;2024-02-21T06:51:29;8.50;99.90
64634;DHT22;51043;52.406;9.690;2024-02-21T06:53:57;8.60;99.90
64634;DHT22;51043;52.406;9.690;2024-02-21T06:56:27;8.60;99.90
64634;DHT22;51043;52.406;9.690;2024-02-21T06:58:55;8.50;99.90
64634;DHT22;51043;52.406;9.690;2024-02-21T07:01:25;8.60;99.90
64634;DHT22;51043;52.406;9.690;2024-02-21T07:03:53;8.60;99.90
64634;DHT22;51043;52.406;9.690;2024-02-21T07:06:25;8.50;99.90
64634;DHT22;51043;52.406;9.690;2024-02-21T07:08:54;8.50;99.90
64634;DHT22;51043;52.406;9.690;2024-02-21T07:11:22;8.50;99.90
64634;DHT22;51043;52.406;9.690;2024-02-21T07:13:53;8.40;99.90
64634;DHT22;51043;52.406;9.690;2024-02-21T07:16:21;8.40;99.90
64634;DHT22;51043;52.406;9.690;2024-02-21T07:18:51;8.40;99.90
64634;DHT22;51043;52.406;9.690;2024-02-21T07:21:20;8.30;99.90
64634;DHT22;51043;52.406;9.690;2024-02-21T07:23:49;8.40;99.90
64634;DHT22;51043;52.406;9.690;2024-02-21T07:26:19;8.30;99.90
64634;DHT22;51043;52.406;9.690;2024-02-21T07:28:56;8.30;99.90
64634;DHT22;51043;52.406;9.690;2024-02-21T07:31:29;8.30;99.90
64634;DHT22;51043;52.406;9.690;2024-02-21T07:33:57;8.30;99.90
64634;DHT22;51043;52.406;9.690;2024-02-21T07:36:28;8.20;99.90
64634;DHT22;51043;52.406;9.690;2024-02-21T07:38:57;8.20;99.90
64634;DHT22;51043;52.406;9.690;2024-02-21T07:41:25;8.30;99.90
64634;DHT22;51043;52.406;9.690;2024-02-21T07:43:54;8.30;99.90
64634;DHT22;51043;52.406;9.690;2024-02-21T07:46:22;8.40;99.90
64634;DHT22;51043;52.406;9.690;2024-02-21T07:48:52;8.40;99.90
64634;DHT22;51043;52.406;9.690;2024-02-21T07:51:20;8.50;99.90
64634;DHT22;51043;52.406;9.690;2024-02-21T07:53:48;8.60;99.90
64634;DHT22;51043;52.406;9.690;2024-02-21T07:56:16;8.60;99.90
64634;DHT22;51043;52.406;9.690;2024-02-21T07:58:44;8.70;99.90
64634;DHT22;51043;52.406;9.690;2024-02-21T08:01:18;8.70;99.90
64634;DHT22;51043;52.406;9.690;2024-02-21T08:03:46;8.80;99.90
64634;DHT22;51043;52.406;9.690;2024-02-21T08:06:15;8.90;99.90
64634;DHT22;51043;52.406;9.690;2024-02-21T08:08:43;8.90;99.90
64634;DHT22;51043;52.406;9.690;2024-02-21T08:11:11;8.90;99.90
64634;DHT22;51043;52.406;9.690;2024-02-21T08:13:39;8.90;99.90
64634;DHT22;51043;52.406;9.690;2024-02-21T08:16:07;9.00;99.90
64634;DHT22;51043;52.406;9.690;2024-02-21T08:18:39;9.00;99.90
64634;DHT22;51043;52.406;9.690;2024-02-21T08:21:11;9.00;99.90
64634;DHT22;51043;52.406;9.690;2024-02-21T08:23:41;9.00;99.90
64634;DHT22;51043;52.406;9.690;2024-02-21T08:26:09;9.10;99.90
64634;DHT22;51043;52.406;9.690;2024-02-21T08:28:38;9.10;99.90
64634;DHT22;51043;52.406;9.690;2024-02-21T08:31:07;9.20;99.90
64634;DHT22;51043;52.406;9.690;2024-02-21T08:33:36;9.20;99.90
64634;DHT22;51043;52.406;9.690;2024-02-21T08:36:06;9.30;99.90
64634;DHT22;51043;52.406;9.690;2024-02-21T08:38:37;9.40;99.90
64634;DHT22;51043;52.406;9.690;2024-02-21T08:41:05;9.40;99.90
64634;DHT22;51043;52.406;9.690;2024-02-21T08:43:34;9.40;99.90
64634;DHT22;51043;52.406;9.690;2024-02-21T08:46:03;9.50;99.90
64634;DHT22;51043;52.406;9.690;2024-02-21T08:48:31;9.60;99.90
64634;DHT22;51043;52.406;9.690;2024-02-21T08:50:59;9.60;99.90
64634;DHT22;51043;52.406;9.690;2024-02-21T08:53:30;9.70;99.90
64634;DHT22;51043;52.406;9.690;2024-02-21T08:55:59;9.80;99.90
64634;DHT22;51043;52.406;9.690;2024-02-21T08:58:31;9.90;99.90
64634;DHT22;51043;52.406;9.690;2024-02-21T09:00:59;10.00;99.90
64634;DHT22;51043;52.406;9.690;2024-02-21T09:03:30;10.10;99.90
64634;DHT22;51043;52.406;9.690;2024-02-21T09:05:59;10.10;99.90
64634;DHT22;51043;52.406;9.690;2024-02-21T09:08:29;10.30;99.90
64634;DHT22;51043;52.406;9.690;2024-02-21T09:10:58;10.40;99.90
64634;DHT22;51043;52.406;9.690;2024-02-21T09:13:26;10.40;99.90
64634;DHT22;51043;52.406;9.690;2024-02-21T09:15:56;10.40;99.90
64634;DHT22;51043;52.406;9.690;2024-02-21T09:18:29;10.60;99.90
64634;DHT22;51043;52.406;9.690;2024-02-21T09:20:57;10.60;99.90
64634;DHT22;51043;52.406;9.690;2024-02-21T09:23:32;10.70;99.90
64634;DHT22;51043;52.406;9.690;2024-02-21T09:26:00;10.80;99.90
64634;DHT22;51043;52.406;9.690;2024-02-21T09:28:31;10.90;99.90
64634;DHT22;51043;52.406;9.690;2024-02-21T09:31:02;11.00;99.90
64634;DHT22;51043;52.406;9.690;2024-02-21T09:33:31;10.90;99.90
64634;DHT22;51043;52.406;9.690;2024-02-21T09:36:04;10.90;99.90
64634;DHT22;51043;52.406;9.690;2024-02-21T09:38:34;10.80;99.90
64634;DHT22;51043;52.406;9.690;2024-02-21T09:41:11;11.00;99.90
64634;DHT22;51043;52.406;9.690;2024-02-21T09:43:42;11.00;99.90
64634;DHT22;51043;52.406;9.690;2024-02-21T09:46:16;11.10;99.90
64634;DHT22;51043;52.406;9.690;2024-02-21T09:49:04;11.10;99.90
64634;DHT22;51043;52.406;9.690;2024-02-21T09:51:38;11.00;99.90
64634;DHT22;51043;52.406;9.690;2024-02-21T09:54:11;10.90;99.90
64634;DHT22;51043;52.406;9.690;2024-02-21T09:56:41;10.90;99.90
64634;DHT22;51043;52.406;9.690;2024-02-21T09:59:11;10.90;99.90
64634;DHT22;51043;52.406;9.690;2024-02-21T10:04:11;10.80;99.90
64634;DHT22;51043;52.406;9.690;2024-02-21T10:06:39;10.90;99.90
64634;DHT22;51043;52.406;9.690;2024-02-21T10:09:07;10.90;99.90
64634;DHT22;51043;52.406;9.690;2024-02-21T10:11:37;10.80;99.90
64634;DHT22;51043;52.406;9.690;2024-02-21T10:14:06;10.80;99.90
64634;DHT22;51043;52.406;9.690;2024-02-21T10:16:34;10.80;99.90
64634;DHT22;51043;52.406;9.690;2024-02-21T10:19:04;11.00;99.90
64634;DHT22;51043;52.406;9.690;2024-02-21T10:21:32;11.00;99.90
64634;DHT22;51043;52.406;9.690;2024-02-21T10:24:02;11.00;99.90
64634;DHT22;51043;52.406;9.690;2024-02-21T10:26:34;11.00;99.90
64634;DHT22;51043;52.406;9.690;2024-02-21T10:29:06;11.00;99.90
64634;DHT22;51043;52.406;9.690;2024-02-21T10:31:34;10.90;99.90
64634;DHT22;51043;52.406;9.690;2024-02-21T10:34:02;11.00;99.90
64634;DHT22;51043;52.406;9.690;2024-02-21T10:36:31;11.00;99.90
64634;DHT22;51043;52.406;9.690;2024-02-21T10:38:59;11.00;99.90
64634;DHT22;51043;52.406;9.690;2024-02-21T10:41:28;11.20;99.90
64634;DHT22;51043;52.406;9.690;2024-02-21T10:43:58;11.40;99.90
64634;DHT22;51043;52.406;9.690;2024-02-21T10:46:32;11.70;99.90
64634;DHT22;51043;52.406;9.690;2024-02-21T10:49:10;11.90;99.90
64634;DHT22;51043;52.406;9.690;2024-02-21T10:51:43;11.90;99.90
64634;DHT22;51043;52.406;9.690;2024-02-21T10:54:28;11.80;99.90
64634;DHT22;51043;52.406;9.690;2024-02-21T10:57:02;11.80;99.90
64634;DHT22;51043;52.406;9.690;2024-02-21T10:59:36;11.90;99.90
64634;DHT22;51043;52.406;9.690;2024-02-21T11:02:07;12.00;99.90
64634;DHT22;51043;52.406;9.690;2024-02-21T11:04:36;11.90;99.90
64634;DHT22;51043;52.406;9.690;2024-02-21T11:07:05;11.90;99.90
64634;DHT22;51043;52.406;9.690;2024-02-21T11:09:50;12.00;99.90
64634;DHT22;51043;52.406;9.690;2024-02-21T11:12:21;12.20;99.90
64634;DHT22;51043;52.406;9.690;2024-02-21T11:14:50;12.50;99.90
64634;DHT22;51043;52.406;9.690;2024-02-21T11:17:20;13.00;99.90
64634;DHT22;51043;52.406;9.690;2024-02-21T11:19:53;13.20;99.90
64634;DHT22;51043;52.406;9.690;2024-02-21T11:22:21;13.40;99.90
64634;DHT22;51043;52.406;9.690;2024-02-21T11:24:51;13.10;99.90
64634;DHT22;51043;52.406;9.690;2024-02-21T11:27:21;13.10;99.90
64634;DHT22;51043;52.406;9.690;2024-02-21T11:29:55;12.90;99.90
64634;DHT22;51043;52.406;9.690;2024-02-21T11:32:26;12.90;99.90
64634;DHT22;51043;52.406;9.690;2024-02-21T11:34:58;13.00;99.90
64634;DHT22;51043;52.406;9.690;2024-02-21T11:37:29;12.80;99.90
64634;DHT22;51043;52.406;9.690;2024-02-21T11:40:02;12.50;99.90
64634;DHT22;51043;52.406;9.690;2024-02-21T11:42:33;12.20;99.90
64634;DHT22;51043;52.406;9.690;2024-02-21T11:45:01;12.10;99.90
64634;DHT22;51043;52.406;9.690;2024-02-21T11:47:32;12.10;99.90
64634;DHT22;51043;52.406;9.690;2024-02-21T11:50:00;12.10;99.90
64634;DHT22;51043;52.406;9.690;2024-02-21T11:52:32;11.90;99.90
64634;DHT22;51043;52.406;9.690;2024-02-21T11:55:00;11.70;99.90
64634;DHT22;51043;52.406;9.690;2024-02-21T11:57:31;11.70;99.90
64634;DHT22;51043;52.406;9.690;2024-02-21T12:00:14;11.80;99.90
64634;DHT22;51043;52.406;9.690;2024-02-21T12:02:46;11.80;99.90
64634;DHT22;51043;52.406;9.690;2024-02-21T12:05:15;11.90;99.90
64634;DHT22;51043;52.406;9.690;2024-02-21T12:07:45;12.30;99.90
64634;DHT22;51043;52.406;9.690;2024-02-21T12:10:14;12.50;99.90
64634;DHT22;51043;52.406;9.690;2024-02-21T12:12:47;12.60;99.90
64634;DHT22;51043;52.406;9.690;2024-02-21T12:15:18;12.70;99.90
64634;DHT22;51043;52.406;9.690;2024-02-21T12:17:48;12.70;99.90
64634;DHT22;51043;52.406;9.690;2024-02-21T12:20:21;12.70;99.90
64634;DHT22;51043;52.406;9.690;2024-02-21T12:22:50;12.60;99.90
64634;DHT22;51043;52.406;9.690;2024-02-21T12:25:22;12.70;99.90
64634;DHT22;51043;52.406;9.690;2024-02-21T12:27:55;12.80;99.90
64634;DHT22;51043;52.406;9.690;2024-02-21T12:30:23;12.70;99.90
64634;DHT22;51043;52.406;9.690;2024-02-21T12:32:52;12.70;99.90
64634;DHT22;51043;52.406;9.690;2024-02-21T12:35:22;12.70;99.90
64634;DHT22;51043;52.406;9.690;2024-02-21T12:37:50;12.70;99.90
64634;DHT22;51043;52.406;9.690;2024-02-21T12:40:18;12.70;99.90
64634;DHT22;51043;52.406;9.690;2024-02-21T12:42:47;12.90;99.90
64634;DHT22;51043;52.406;9.690;2024-02-21T12:45:15;12.80;99.90
64634;DHT22;51043;52.406;9.690;2024-02-21T12:47:44;12.60;99.90
64634;DHT22;51043;52.406;9.690;2024-02-21T12:50:13;12.50;99.90
64634;DHT22;51043;52.406;9.690;2024-02-21T12:52:42;12.50;99.90
64634;DHT22;51043;52.406;9.690;2024-02-21T12:55:10;12.50;99.90
64634;DHT22;51043;52.406;9.690;2024-02-21T12:57:39;12.50;99.90
64634;DHT22;51043;52.406;9.690;2024-02-21T13:00:08;12.60;99.90
64634;DHT22;51043;52.406;9.690;2024-02-21T13:02:39;12.80;99.90
64634;DHT22;51043;52.406;9.690;2024-02-21T13:05:08;12.80;99.90
64634;DHT22;51043;52.406;9.690;2024-02-21T13:07:38;12.70;99.90
64634;DHT22;51043;52.406;9.690;2024-02-21T13:10:06;12.60;99.90
64634;DHT22;51043;52.406;9.690;2024-02-21T13:12:36;12.50;99.90
64634;DHT22;51043;52.406;9.690;2024-02-21T13:15:07;12.40;99.90
64634;DHT22;51043;52.406;9.690;2024-02-21T13:17:38;12.20;99.90
64634;DHT22;51043;52.406;9.690;2024-02-21T13:20:08;12.30;99.90
64634;DHT22;51043;52.406;9.690;2024-02-21T13:22:38;12.10;99.90
64634;DHT22;51043;52.406;9.690;2024-02-21T13:25:07;12.00;99.90
64634;DHT22;51043;52.406;9.690;2024-02-21T13:27:36;12.00;99.90
64634;DHT22;51043;52.406;9.690;2024-02-21T13:30:07;12.10;99.90
64634;DHT22;51043;52.406;9.690;2024-02-21T13:32:37;12.00;99.90
64634;DHT22;51043;52.406;9.690;2024-02-21T13:35:05;12.10;99.90
64634;DHT22;51043;52.406;9.690;2024-02-21T13:37:33;12.10;99.90
64634;DHT22;51043;52.406;9.690;2024-02-21T13:40:06;12.10;99.90
64634;DHT22;51043;52.406;9.690;2024-02-21T13:42:36;12.00;99.90
64634;DHT22;51043;52.406;9.690;2024-02-21T13:45:05;11.90;99.90
64634;DHT22;51043;52.406;9.690;2024-02-21T13:47:36;11.90;99.90
64634;DHT22;51043;52.406;9.690;2024-02-21T13:50:09;11.90;99.90
64634;DHT22;51043;52.406;9.690;2024-02-21T13:52:39;11.90;99.90
64634;DHT22;51043;52.406;9.690;2024-02-21T13:55:09;11.90;99.90
64634;DHT22;51043;52.406;9.690;2024-02-21T13:57:37;11.90;99.90
64634;DHT22;51043;52.406;9.690;2024-02-21T14:00:06;12.00;99.90
64634;DHT22;51043;52.406;9.690;2024-02-21T14:02:40;11.90;99.90
64634;DHT22;51043;52.406;9.690;2024-02-21T14:05:09;11.80;99.90
64634;DHT22;51043;52.406;9.690;2024-02-21T14:07:38;11.80;99.90
64634;DHT22;51043;52.406;9.690;2024-02-21T14:10:08;11.90;99.90
64634;DHT22;51043;52.406;9.690;2024-02-21T14:12:37;12.00;99.90
64634;DHT22;51043;52.406;9.690;2024-02-21T14:15:07;12.00;99.90
64634;DHT22;51043;52.406;9.690;2024-02-21T14:17:36;11.90;99.90
64634;DHT22;51043;52.406;9.690;2024-02-21T14:20:07;11.90;99.90
64634;DHT22;51043;52.406;9.690;2024-02-21T14:22:35;11.80;99.90
64634;DHT22;51043;52.406;9.690;2024-02-21T14:25:04;11.80;99.90
64634;DHT22;51043;52.406;9.690;2024-02-21T14:27:34;11.80;99.90
64634;DHT22;51043;52.406;9.690;2024-02-21T14:30:04;11.70;99.90
64634;DHT22;51043;52.406;9.690;2024-02-21T14:32:33;11.70;99.90
64634;DHT22;51043;52.406;9.690;2024-02-21T14:35:04;11.60;99.90
64634;DHT22;51043;52.406;9.690;2024-02-21T14:37:40;11.50;99.90
64634;DHT22;51043;52.406;9.690;2024-02-21T14:40:09;11.40;99.90
64634;DHT22;51043;52.406;9.690;2024-02-21T14:42:40;11.40;99.90
64634;DHT22;51043;52.406;9.690;2024-02-21T14:45:11;11.40;99.90
64634;DHT22;51043;52.406;9.690;2024-02-21T14:47:42;11.40;99.90
64634;DHT22;51043;52.406;9.690;2024-02-21T14:50:12;11.40;99.90
64634;DHT22;51043;52.406;9.690;2024-02-21T14:52:42;11.30;99.90
64634;DHT22;51043;52.406;9.690;2024-02-21T14:55:13;11.30;99.90
64634;DHT22;51043;52.406;9.690;2024-02-21T14:57:43;11.40;99.90
64634;DHT22;51043;52.406;9.690;2024-02-21T15:00:12;11.40;99.90
64634;DHT22;51043;52.406;9.690;2024-02-21T15:02:41;11.30;99.90
64634;DHT22;51043;52.406;9.690;2024-02-21T15:05:10;11.40;99.90
64634;DHT22;51043;52.406;9.690;2024-02-21T15:07:39;11.30;99.90
64634;DHT22;51043;52.406;9.690;2024-02-21T15:10:08;11.20;99.90
64634;DHT22;51043;52.406;9.690;2024-02-21T15:12:36;11.20;99.90
64634;DHT22;51043;52.406;9.690;2024-02-21T15:15:08;11.20;99.90
64634;DHT22;51043;52.406;9.690;2024-02-21T15:17:36;11.20;99.90
64634;DHT22;51043;52.406;9.690;2024-02-21T15:20:06;11.20;99.90
64634;DHT22;51043;52.406;9.690;2024-02-21T15:22:35;11.10;99.90
64634;DHT22;51043;52.406;9.690;2024-02-21T15:25:04;11.00;99.90
64634;DHT22;51043;52.406;9.690;2024-02-21T15:27:33;10.90;99.90
64634;DHT22;51043;52.406;9.690;2024-02-21T15:30:07;10.80;99.90
64634;DHT22;51043;52.406;9.690;2024-02-21T15:32:36;10.80;99.90
64634;DHT22;51043;52.406;9.690;2024-02-21T15:35:05;10.80;99.90
64634;DHT22;51043;52.406;9.690;2024-02-21T15:37:34;10.70;99.90
64634;DHT22;51043;52.406;9.690;2024-02-21T15:40:02;10.60;99.90
64634;DHT22;51043;52.406;9.690;2024-02-21T15:42:35;10.60;99.90
64634;DHT22;51043;52.406;9.690;2024-02-21T15:45:07;10.50;99.90
64634;DHT22;51043;52.406;9.690;2024-02-21T15:47:35;10.60;99.90
64634;DHT22;51043;52.406;9.690;2024-02-21T15:50:04;10.50;99.90
64634;DHT22;51043;52.406;9.690;2024-02-21T15:52:35;10.50;99.90
64634;DHT22;51043;52.406;9.690;2024-02-21T15:55:04;10.50;99.90
64634;DHT22;51043;52.406;9.690;2024-02-21T15:57:35;10.40;99.90